Time;durP1;ratioP1;P1;durP2;ratioP2;P2;SDS_P1;SDS_P2;PMS_P1;PMS_P2;Temp;Humidity;BMP_temperature;BMP_pressure;BME280_temperature;BME280_humidity;BME280_pressure;Samples;Min_cycle;Max_cycle;Signal;HPM_P1;HPM_P2
2022/01/07 00:01:55;;;;;;;17.55;9.30;;;4.80;89.40;;;;;;6229670;22;20058;-77
2022/01/07 00:04:20;;;;;;;15.95;8.10;;;4.80;89.30;;;;;;6204874;22;20023;-77
2022/01/07 00:06:46;;;;;;;15.52;8.07;;;4.80;89.30;;;;;;6204599;22;20026;-76
2022/01/07 00:09:12;;;;;;;17.33;8.13;;;4.70;89.20;;;;;;6179536;22;20071;-77
2022/01/07 00:11:37;;;;;;;16.17;8.23;;;4.80;89.20;;;;;;6179594;22;20055;-78
2022/01/07 00:14:03;;;;;;;15.32;8.35;;;4.80;89.10;;;;;;6179549;22;20019;-76
2022/01/07 00:16:29;;;;;;;17.98;8.75;;;4.80;89.10;;;;;;6204586;22;20342;-77
2022/01/07 00:18:56;;;;;;;20.35;8.10;;;4.80;89.10;;;;;;6204175;22;20016;-77
2022/01/07 00:21:22;;;;;;;17.20;7.93;;;4.70;89.00;;;;;;6180286;22;20094;-76
2022/01/07 00:23:48;;;;;;;19.70;8.13;;;4.70;88.90;;;;;;6179606;22;20020;-77
2022/01/07 00:26:14;;;;;;;15.25;7.22;;;4.80;89.00;;;;;;6179540;22;20023;-78
2022/01/07 00:28:39;;;;;;;14.55;6.97;;;4.80;88.90;;;;;;6229564;22;20016;-78
2022/01/07 00:31:05;;;;;;;10.70;7.13;;;4.70;88.90;;;;;;6204392;22;20051;-77
2022/01/07 00:33:31;;;;;;;13.07;7.07;;;4.70;89.00;;;;;;6204380;22;20442;-78
2022/01/07 00:35:57;;;;;;;15.50;7.18;;;4.70;89.00;;;;;;6229368;22;20070;-77
2022/01/07 00:38:23;;;;;;;12.25;7.07;;;4.70;89.20;;;;;;6204857;22;20039;-78
2022/01/07 00:40:49;;;;;;;13.95;6.97;;;4.70;89.30;;;;;;6204370;22;20512;-79
2022/01/07 00:43:15;;;;;;;13.70;7.55;;;4.70;89.30;;;;;;6204668;22;20022;-78
2022/01/07 00:45:43;;;;;;;14.07;6.97;;;4.70;89.40;;;;;;6228318;22;20027;-80
2022/01/07 00:48:11;;;;;;;13.20;7.35;;;4.70;89.60;;;;;;6204768;22;20016;-78
2022/01/07 00:50:37;;;;;;;16.85;8.10;;;4.60;89.70;;;;;;6204732;22;20496;-78
2022/01/07 00:53:03;;;;;;;16.08;7.57;;;4.70;89.90;;;;;;6204148;22;20031;-78
2022/01/07 00:55:29;;;;;;;16.92;7.47;;;4.60;90.00;;;;;;6179200;22;20038;-80
2022/01/07 00:57:54;;;;;;;17.05;7.18;;;4.60;90.00;;;;;;6179019;22;20026;-78
2022/01/07 01:00:22;;;;;;;13.13;7.25;;;4.60;90.00;;;;;;6179592;22;20016;-79
2022/01/07 01:02:47;;;;;;;16.67;7.57;;;4.60;90.10;;;;;;6204199;22;20072;-78
2022/01/07 01:05:15;;;;;;;13.10;7.03;;;4.60;90.20;;;;;;6230135;22;20016;-78
2022/01/07 01:07:41;;;;;;;14.57;6.72;;;4.60;90.30;;;;;;6202474;22;20016;-83
2022/01/07 01:10:08;;;;;;;15.98;6.80;;;4.60;90.30;;;;;;6200587;22;20402;-78
2022/01/07 01:12:38;;;;;;;14.93;7.75;;;4.60;90.30;;;;;;6201448;22;20516;-79
2022/01/07 01:15:04;;;;;;;13.85;6.43;;;4.50;90.30;;;;;;6177576;22;20022;-79
2022/01/07 01:17:30;;;;;;;10.85;6.90;;;4.50;90.40;;;;;;6178190;22;20055;-79
2022/01/07 01:19:56;;;;;;;13.90;7.28;;;4.60;90.50;;;;;;6177593;22;20030;-79
2022/01/07 01:22:21;;;;;;;17.55;7.65;;;4.50;90.50;;;;;;6253046;22;20518;-79
2022/01/07 01:24:47;;;;;;;12.02;6.97;;;4.50;90.50;;;;;;6202223;22;20098;-81
2022/01/07 01:27:13;;;;;;;13.48;7.45;;;4.50;90.60;;;;;;6203189;22;20315;-78
2022/01/07 01:29:38;;;;;;;17.02;7.25;;;4.50;90.60;;;;;;6178616;22;20019;-78
2022/01/07 01:32:04;;;;;;;16.15;8.10;;;4.50;90.70;;;;;;6203311;22;20389;-78
2022/01/07 01:34:30;;;;;;;10.95;7.22;;;4.50;90.70;;;;;;6204012;22;20020;-78
2022/01/07 01:36:56;;;;;;;14.18;7.60;;;4.50;90.80;;;;;;6228225;22;20016;-78
2022/01/07 01:39:24;;;;;;;15.18;8.30;;;4.50;90.80;;;;;;6228935;22;20342;-79
2022/01/07 01:41:49;;;;;;;16.08;9.20;;;4.50;90.90;;;;;;6228469;22;20020;-83
2022/01/07 01:44:15;;;;;;;13.55;8.02;;;4.40;90.90;;;;;;6281021;22;20054;-78
2022/01/07 01:46:41;;;;;;;14.82;8.20;;;4.40;91.00;;;;;;6204185;22;20012;-78
2022/01/07 01:49:07;;;;;;;15.70;8.55;;;4.40;91.00;;;;;;6203683;22;20468;-78
2022/01/07 01:51:33;;;;;;;18.52;9.25;;;4.40;91.10;;;;;;6203459;22;20087;-79
2022/01/07 01:53:58;;;;;;;17.92;8.48;;;4.40;91.10;;;;;;6203712;22;20438;-79
2022/01/07 01:56:24;;;;;;;15.13;7.88;;;4.40;91.20;;;;;;6178727;22;20019;-78
2022/01/07 01:58:50;;;;;;;17.00;8.77;;;4.40;91.20;;;;;;6203956;22;20335;-79
2022/01/07 02:01:15;;;;;;;16.08;8.60;;;4.40;91.30;;;;;;6202845;22;20023;-77
2022/01/07 02:03:41;;;;;;;15.38;8.35;;;4.40;91.30;;;;;;6228974;22;20024;-78
2022/01/07 02:06:07;;;;;;;15.55;8.50;;;4.30;91.30;;;;;;6203491;22;20381;-78
2022/01/07 02:08:35;;;;;;;15.20;9.27;;;4.30;91.40;;;;;;6203428;22;20462;-78
2022/01/07 02:11:01;;;;;;;12.43;9.13;;;4.30;91.40;;;;;;6178920;22;20026;-78
2022/01/07 02:13:26;;;;;;;16.05;9.70;;;4.30;91.40;;;;;;6179890;22;20012;-78
2022/01/07 02:15:52;;;;;;;17.77;10.00;;;4.30;91.40;;;;;;6204562;22;20472;-78
2022/01/07 02:18:18;;;;;;;13.13;9.07;;;4.30;91.50;;;;;;6204595;22;20332;-78
2022/01/07 02:20:44;;;;;;;16.10;9.63;;;4.30;91.50;;;;;;6204988;22;20102;-78
2022/01/07 02:23:10;;;;;;;16.67;9.55;;;4.30;91.50;;;;;;6229429;22;20311;-78
2022/01/07 02:25:35;;;;;;;14.85;10.80;;;4.30;91.90;;;;;;6229737;22;20020;-78
2022/01/07 02:28:01;;;;;;;15.40;9.82;;;4.30;91.60;;;;;;6203741;22;20415;-80
2022/01/07 02:30:28;;;;;;;19.05;10.07;;;4.30;91.70;;;;;;6179432;22;20065;-78
2022/01/07 02:32:54;;;;;;;17.70;9.68;;;4.30;91.70;;;;;;6229117;22;20442;-78
2022/01/07 02:35:21;;;;;;;14.90;10.13;;;4.20;91.70;;;;;;6178303;22;20027;-78
2022/01/07 02:37:46;;;;;;;15.98;10.00;;;4.20;91.70;;;;;;6204016;22;20030;-78
2022/01/07 02:40:15;;;;;;;14.32;10.63;;;4.20;91.70;;;;;;6179695;22;20074;-78
2022/01/07 02:42:41;;;;;;;15.48;10.00;;;4.20;91.80;;;;;;6203615;22;20377;-79
2022/01/07 02:45:08;;;;;;;14.63;10.13;;;4.20;91.80;;;;;;6203337;22;20011;-78
2022/01/07 02:47:48;;;;;;;18.20;9.90;;;4.20;91.80;;;;;;6203898;22;20054;-78
2022/01/07 02:50:15;;;;;;;14.68;10.32;;;4.20;91.80;;;;;;6206071;22;20019;-78
2022/01/07 02:52:41;;;;;;;13.02;9.88;;;4.20;91.80;;;;;;6177928;22;20020;-77
2022/01/07 02:55:07;;;;;;;15.15;10.50;;;4.20;91.90;;;;;;6226336;22;20123;-79
2022/01/07 02:57:32;;;;;;;14.50;10.07;;;4.20;91.90;;;;;;6228310;22;20110;-78
2022/01/07 02:59:58;;;;;;;16.73;10.43;;;4.20;91.90;;;;;;6178385;22;20019;-78
2022/01/07 03:02:24;;;;;;;12.70;10.90;;;4.20;92.00;;;;;;6203871;22;20393;-79
2022/01/07 03:04:49;;;;;;;16.50;11.15;;;4.10;91.90;;;;;;6203706;22;20046;-78
2022/01/07 03:07:15;;;;;;;13.57;10.65;;;4.20;92.00;;;;;;6203691;22;20020;-78
2022/01/07 03:09:41;;;;;;;14.65;10.30;;;4.20;92.00;;;;;;6205908;22;20023;-78
2022/01/07 03:12:07;;;;;;;16.30;10.00;;;4.10;92.00;;;;;;6230933;22;20011;-78
2022/01/07 03:14:33;;;;;;;14.63;10.73;;;4.10;92.00;;;;;;6205885;22;20485;-78
2022/01/07 03:16:58;;;;;;;15.27;9.73;;;4.10;92.00;;;;;;6180750;22;20034;-77
2022/01/07 03:19:24;;;;;;;14.40;10.00;;;4.10;92.00;;;;;;6205386;22;20012;-79
2022/01/07 03:21:50;;;;;;;14.27;9.98;;;4.10;92.10;;;;;;6206193;22;20084;-78
2022/01/07 03:24:15;;;;;;;15.25;10.57;;;4.10;92.10;;;;;;6205480;22;20082;-78
2022/01/07 03:26:41;;;;;;;15.43;11.80;;;4.10;92.10;;;;;;6256421;22;20023;-77
2022/01/07 03:29:07;;;;;;;16.38;11.02;;;4.10;92.10;;;;;;6231366;22;20016;-80
2022/01/07 03:31:32;;;;;;;12.50;9.82;;;4.20;92.20;;;;;;6205191;22;20436;-78
2022/01/07 03:34:00;;;;;;;15.50;9.98;;;4.10;92.20;;;;;;6256812;22;20019;-78
2022/01/07 03:36:26;;;;;;;15.48;10.88;;;4.10;92.20;;;;;;6205941;22;20019;-78
2022/01/07 03:38:51;;;;;;;15.63;10.23;;;4.10;92.20;;;;;;6205839;22;20022;-78
2022/01/07 03:41:17;;;;;;;15.15;9.95;;;4.10;92.20;;;;;;6230714;22;20019;-77
2022/01/07 03:43:42;;;;;;;16.95;10.48;;;4.10;92.20;;;;;;6256600;22;20091;-78
2022/01/07 03:46:08;;;;;;;13.82;10.25;;;4.10;92.20;;;;;;6231146;22;20461;-81
2022/01/07 03:48:34;;;;;;;14.88;10.02;;;4.10;92.30;;;;;;6206418;22;20118;-79
2022/01/07 03:51:00;;;;;;;16.00;10.75;;;4.10;92.30;;;;;;6231172;22;20026;-78
2022/01/07 03:53:25;;;;;;;13.85;9.65;;;4.20;92.30;;;;;;6180974;22;20030;-78
2022/01/07 03:55:52;;;;;;;12.38;9.63;;;4.10;92.30;;;;;;6205936;22;20027;-78
2022/01/07 03:58:18;;;;;;;12.65;9.45;;;4.10;92.30;;;;;;6230987;22;20075;-78
2022/01/07 04:00:44;;;;;;;15.38;10.40;;;4.10;92.30;;;;;;6205419;22;20020;-78
2022/01/07 04:03:13;;;;;;;11.18;9.52;;;4.10;92.30;;;;;;6230732;22;20027;-79
2022/01/07 04:05:39;;;;;;;14.65;10.20;;;4.10;92.40;;;;;;6181441;22;20020;-78
2022/01/07 04:08:05;;;;;;;12.95;9.40;;;4.10;92.30;;;;;;6231136;22;20443;-77
2022/01/07 04:10:31;;;;;;;12.95;10.00;;;4.10;92.40;;;;;;6205504;22;20018;-78
2022/01/07 04:12:57;;;;;;;14.52;9.98;;;4.10;92.40;;;;;;6217016;22;20020;-77
2022/01/07 04:15:23;;;;;;;13.45;10.05;;;4.10;92.40;;;;;;6191585;22;20049;-77
2022/01/07 04:17:52;;;;;;;15.32;10.32;;;4.10;92.40;;;;;;6220199;22;20067;-77
2022/01/07 04:20:26;;;;;;;15.07;10.10;;;4.20;92.50;;;;;;6192210;22;20019;-77
2022/01/07 04:22:52;;;;;;;11.05;9.35;;;4.20;92.50;;;;;;6187157;22;20020;-78
2022/01/07 04:25:18;;;;;;;11.65;9.73;;;4.10;92.40;;;;;;6181667;22;20020;-78
2022/01/07 04:27:52;;;;;;;14.13;9.27;;;4.10;92.50;;;;;;6210096;22;20047;-78
2022/01/07 04:30:18;;;;;;;13.07;9.90;;;4.20;92.50;;;;;;6194655;22;20508;-83
2022/01/07 04:32:44;;;;;;;12.30;8.85;;;4.20;92.50;;;;;;6218287;22;20072;-78
2022/01/07 04:35:10;;;;;;;13.80;9.07;;;4.10;92.50;;;;;;6186230;22;20023;-78
2022/01/07 04:37:36;;;;;;;15.25;9.57;;;4.20;92.50;;;;;;6228160;22;20015;-78
2022/01/07 04:40:06;;;;;;;11.35;9.93;;;4.20;92.50;;;;;;6231559;22;20019;-77
2022/01/07 04:42:32;;;;;;;16.80;9.52;;;4.10;92.50;;;;;;6205278;22;20307;-78
2022/01/07 04:44:57;;;;;;;14.60;9.95;;;4.10;92.50;;;;;;6180518;22;20026;-77
2022/01/07 04:47:23;;;;;;;15.82;10.43;;;4.10;92.50;;;;;;6204931;22;20042;-78
2022/01/07 04:49:50;;;;;;;13.55;10.25;;;4.10;92.60;;;;;;6205135;22;20018;-78
2022/01/07 04:52:17;;;;;;;15.23;9.68;;;4.10;92.60;;;;;;6255007;22;20350;-77
2022/01/07 04:54:45;;;;;;;13.00;10.07;;;4.10;92.60;;;;;;6204722;22;20051;-78
2022/01/07 04:57:11;;;;;;;12.60;9.77;;;4.10;92.60;;;;;;6205259;22;20019;-78
2022/01/07 04:59:36;;;;;;;12.35;8.60;;;4.10;92.60;;;;;;6209078;22;20020;-76
2022/01/07 05:02:02;;;;;;;10.35;7.88;;;4.10;92.60;;;;;;6240759;22;20023;-77
2022/01/07 05:04:28;;;;;;;11.38;8.60;;;4.10;92.60;;;;;;6216066;22;20051;-78
2022/01/07 05:06:54;;;;;;;13.07;8.60;;;4.10;92.60;;;;;;6243162;22;20016;-76
2022/01/07 05:09:20;;;;;;;10.48;8.45;;;4.10;92.60;;;;;;6256567;22;20046;-82
2022/01/07 05:11:47;;;;;;;11.90;9.15;;;4.10;92.60;;;;;;6179426;22;20015;-78
2022/01/07 05:14:12;;;;;;;8.95;8.05;;;4.10;92.60;;;;;;6204694;22;20012;-78
2022/01/07 05:16:38;;;;;;;10.80;8.40;;;4.10;92.60;;;;;;6179350;22;20390;-78
2022/01/07 05:19:04;;;;;;;11.73;8.93;;;4.10;92.60;;;;;;6204388;22;20016;-77
2022/01/07 05:21:29;;;;;;;15.13;9.30;;;4.10;92.70;;;;;;6203988;22;20020;-78
2022/01/07 05:23:55;;;;;;;11.32;9.45;;;4.10;92.70;;;;;;6204325;22;20023;-78
2022/01/07 05:26:21;;;;;;;11.80;8.35;;;4.10;92.70;;;;;;6204075;22;20020;-78
2022/01/07 05:28:47;;;;;;;11.02;8.25;;;4.10;92.70;;;;;;6204046;22;20026;-77
2022/01/07 05:31:15;;;;;;;10.18;8.82;;;4.10;92.70;;;;;;6203747;22;20011;-77
2022/01/07 05:33:41;;;;;;;11.20;8.50;;;4.10;92.70;;;;;;6253917;22;20039;-76
2022/01/07 05:36:07;;;;;;;10.52;8.00;;;4.20;92.70;;;;;;6204134;22;20026;-77
2022/01/07 05:38:32;;;;;;;12.02;8.65;;;4.10;92.70;;;;;;6228223;22;20062;-77
2022/01/07 05:40:58;;;;;;;11.77;7.63;;;4.10;92.70;;;;;;6228931;22;20015;-77
2022/01/07 05:43:24;;;;;;;10.43;7.80;;;4.10;92.70;;;;;;6204259;22;20027;-77
2022/01/07 05:45:49;;;;;;;9.55;7.57;;;4.10;92.70;;;;;;6179171;22;20023;-78
2022/01/07 05:48:15;;;;;;;9.20;7.45;;;4.10;92.80;;;;;;6229632;22;20081;-77
2022/01/07 05:50:41;;;;;;;10.05;8.02;;;4.10;92.80;;;;;;6204211;22;20433;-78
2022/01/07 05:53:06;;;;;;;11.55;7.45;;;4.10;92.80;;;;;;6229750;22;20012;-77
2022/01/07 05:55:32;;;;;;;9.73;7.40;;;4.10;92.80;;;;;;6203985;22;20024;-78
2022/01/07 05:57:58;;;;;;;7.85;7.00;;;4.10;92.80;;;;;;6203856;22;20015;-77
2022/01/07 06:00:24;;;;;;;9.85;7.38;;;4.10;92.80;;;;;;6229074;22;20050;-77
2022/01/07 06:02:49;;;;;;;9.63;7.22;;;4.10;92.80;;;;;;6203301;22;20575;-77
2022/01/07 06:05:15;;;;;;;10.57;7.68;;;4.10;92.80;;;;;;6229300;22;20060;-77
2022/01/07 06:07:41;;;;;;;8.38;6.78;;;4.10;92.80;;;;;;6178525;22;20016;-78
2022/01/07 06:10:07;;;;;;;10.15;6.80;;;4.20;92.90;;;;;;6178493;22;20023;-81
2022/01/07 06:12:33;;;;;;;8.95;7.45;;;4.20;92.90;;;;;;6203775;22;20011;-80
2022/01/07 06:14:59;;;;;;;9.95;8.23;;;4.20;92.90;;;;;;6204293;22;20016;-77
2022/01/07 06:17:25;;;;;;;9.52;7.00;;;4.10;92.90;;;;;;6202582;22;20015;-77
2022/01/07 06:19:50;;;;;;;11.27;7.20;;;4.20;92.90;;;;;;6176552;22;20079;-79
2022/01/07 06:22:18;;;;;;;8.73;7.85;;;4.20;92.90;;;;;;6202661;22;20429;-79
2022/01/07 06:24:44;;;;;;;9.57;7.85;;;4.20;92.90;;;;;;6203828;22;20049;-78
2022/01/07 06:27:10;;;;;;;8.73;7.22;;;4.20;92.90;;;;;;6204018;22;20015;-78
2022/01/07 06:29:37;;;;;;;10.57;7.53;;;4.20;92.90;;;;;;6203769;22;20102;-79
2022/01/07 06:32:04;;;;;;;8.95;8.05;;;4.20;92.90;;;;;;6229132;22;20015;-77
2022/01/07 06:34:30;;;;;;;12.05;7.72;;;4.20;92.90;;;;;;6204124;22;20019;-79
2022/01/07 06:36:58;;;;;;;10.50;7.43;;;4.20;92.90;;;;;;6178382;22;20081;-78
2022/01/07 06:39:23;;;;;;;8.63;7.25;;;4.20;93.00;;;;;;6179934;22;20103;-75
2022/01/07 06:41:50;;;;;;;10.00;7.90;;;4.20;93.00;;;;;;6228043;22;20426;-80
2022/01/07 06:44:17;;;;;;;8.75;7.45;;;4.20;93.00;;;;;;6254556;22;20090;-83
2022/01/07 06:46:42;;;;;;;11.48;8.48;;;4.20;93.00;;;;;;6205563;22;20015;-77
2022/01/07 06:49:08;;;;;;;9.13;8.13;;;4.20;93.00;;;;;;6204927;22;20057;-80
2022/01/07 06:51:34;;;;;;;10.35;7.38;;;4.20;93.10;;;;;;6206041;22;20065;-77
2022/01/07 06:53:59;;;;;;;9.32;8.32;;;4.20;93.10;;;;;;6228545;22;20143;-76
2022/01/07 06:56:25;;;;;;;10.05;8.48;;;4.20;93.10;;;;;;6202583;22;20020;-83
2022/01/07 06:58:51;;;;;;;9.48;8.40;;;4.20;93.10;;;;;;6199679;22;20426;-76
2022/01/07 07:01:17;;;;;;;11.07;8.85;;;4.20;93.20;;;;;;6177182;22;20090;-77
2022/01/07 07:03:42;;;;;;;10.60;8.95;;;4.30;93.20;;;;;;6176841;22;20395;-76
2022/01/07 07:06:08;;;;;;;10.65;8.88;;;4.30;93.20;;;;;;6279142;22;20019;-81
2022/01/07 07:08:34;;;;;;;12.07;10.23;;;4.20;93.20;;;;;;6203646;22;20026;-75
2022/01/07 07:11:00;;;;;;;11.18;9.07;;;4.20;93.20;;;;;;6202653;22;20068;-77
2022/01/07 07:13:26;;;;;;;13.60;10.30;;;4.20;93.30;;;;;;6203896;22;20059;-79
2022/01/07 07:15:51;;;;;;;13.35;10.30;;;4.20;93.30;;;;;;6204007;22;20113;-79
2022/01/07 07:18:17;;;;;;;12.70;11.32;;;4.30;93.30;;;;;;6227420;22;20027;-82
2022/01/07 07:20:43;;;;;;;13.48;10.15;;;4.30;93.30;;;;;;6178889;22;20098;-83
2022/01/07 07:23:09;;;;;;;14.93;11.60;;;4.30;93.30;;;;;;6230929;22;20035;-79
2022/01/07 07:25:35;;;;;;;12.93;11.32;;;4.50;94.00;;;;;;6205967;22;20466;-78
2022/01/07 07:28:01;;;;;;;13.68;11.02;;;4.50;93.40;;;;;;6207208;22;20031;-78
2022/01/07 07:30:34;;;;;;;13.98;11.60;;;4.50;93.30;;;;;;6232293;22;20020;-78
2022/01/07 07:33:17;;;;;;;16.55;12.00;;;4.50;93.30;;;;;;6210544;22;20392;-78
2022/01/07 07:38:11;;;;;;;15.90;12.05;;;4.50;93.30;;;;;;6258185;22;20099;-78
2022/01/07 07:40:38;;;;;;;15.00;11.27;;;4.50;93.30;;;;;;6232547;22;20023;-78
2022/01/07 07:43:04;;;;;;;14.52;12.55;;;4.50;93.30;;;;;;6258275;22;20353;-78
2022/01/07 07:45:30;;;;;;;18.70;12.77;;;4.50;93.40;;;;;;6207491;22;20023;-78
2022/01/07 07:47:55;;;;;;;16.23;13.70;;;4.50;93.40;;;;;;6207583;22;20364;-78
2022/01/07 07:50:21;;;;;;;15.25;13.07;;;4.50;93.50;;;;;;6233243;22;20019;-78
2022/01/07 07:52:47;;;;;;;16.67;13.60;;;4.50;93.50;;;;;;6207145;22;20016;-86
2022/01/07 07:55:12;;;;;;;17.00;13.73;;;4.50;93.50;;;;;;6207448;22;20099;-78
2022/01/07 07:57:38;;;;;;;19.02;14.48;;;4.60;93.50;;;;;;6258354;22;20026;-78
2022/01/07 08:00:05;;;;;;;17.08;13.98;;;4.50;93.50;;;;;;6255057;22;20011;-79
2022/01/07 08:02:31;;;;;;;22.02;15.77;;;4.50;93.60;;;;;;6203191;22;20023;-80
2022/01/07 08:04:57;;;;;;;22.70;15.05;;;4.50;93.60;;;;;;6231043;22;20012;-77
2022/01/07 08:07:23;;;;;;;18.27;14.18;;;4.60;93.60;;;;;;6256501;22;20073;-78
2022/01/07 08:09:50;;;;;;;18.75;14.90;;;4.60;93.70;;;;;;6232679;22;20020;-86
2022/01/07 08:12:20;;;;;;;17.17;14.25;;;4.60;93.70;;;;;;6232429;22;20020;-78
2022/01/07 08:17:30;;;;;;;19.90;14.88;;;4.60;93.70;;;;;;6257834;22;20030;-78
2022/01/07 08:19:58;;;;;;;21.52;16.45;;;4.60;93.70;;;;;;6206939;22;20058;-78
2022/01/07 08:22:24;;;;;;;21.67;18.33;;;4.70;93.80;;;;;;6207221;22;20015;-78
2022/01/07 08:24:50;;;;;;;19.80;16.77;;;4.70;93.80;;;;;;6182049;22;20067;-83
2022/01/07 08:27:16;;;;;;;23.10;18.27;;;4.70;93.80;;;;;;6284106;22;20019;-78
2022/01/07 08:29:42;;;;;;;21.65;17.35;;;4.70;93.80;;;;;;6257419;22;20074;-78
2022/01/07 08:34:55;;;;;;;22.52;17.48;;;4.80;93.80;;;;;;6235595;22;20026;-86
2022/01/07 08:37:26;;;;;;;23.02;18.08;;;4.80;94.10;;;;;;6232833;22;20055;-79
2022/01/07 08:39:53;;;;;;;23.15;17.52;;;4.90;93.80;;;;;;6206876;22;20051;-78
2022/01/07 08:42:20;;;;;;;24.48;18.77;;;4.90;93.80;;;;;;6231547;22;20087;-78
2022/01/07 08:44:46;;;;;;;23.83;18.75;;;4.90;93.80;;;;;;6207029;22;20342;-79
2022/01/07 08:47:11;;;;;;;27.25;20.42;;;5.00;93.80;;;;;;6283196;22;20016;-78
2022/01/07 08:49:37;;;;;;;21.85;18.27;;;5.00;93.80;;;;;;6232481;22;20022;-78
2022/01/07 08:52:03;;;;;;;23.23;18.30;;;5.10;94.10;;;;;;6231334;22;20516;-77
2022/01/07 08:54:29;;;;;;;24.80;19.20;;;5.10;93.70;;;;;;6206461;22;20357;-78
2022/01/07 08:56:55;;;;;;;25.48;20.55;;;5.20;93.70;;;;;;6231424;22;20019;-83
2022/01/07 08:59:21;;;;;;;25.60;19.73;;;5.20;93.70;;;;;;6256372;22;20016;-78
2022/01/07 09:01:46;;;;;;;23.85;18.90;;;5.30;93.70;;;;;;6231034;22;20019;-78
2022/01/07 09:04:12;;;;;;;22.23;19.40;;;5.30;93.70;;;;;;6256776;22;20027;-78
2022/01/07 09:06:38;;;;;;;21.80;17.77;;;5.40;93.70;;;;;;6231736;22;20020;-78
2022/01/07 09:09:04;;;;;;;25.48;20.08;;;5.30;93.60;;;;;;6231505;22;20051;-78
2022/01/07 09:11:29;;;;;;;24.35;20.17;;;5.40;93.70;;;;;;6284462;22;20053;-78
2022/01/07 09:13:58;;;;;;;25.40;19.52;;;5.40;93.60;;;;;;6232533;22;20016;-79
2022/01/07 09:16:25;;;;;;;24.92;19.40;;;5.40;93.60;;;;;;6207805;22;20050;-78
2022/01/07 09:18:51;;;;;;;28.27;20.70;;;5.50;93.60;;;;;;6231389;22;20316;-78
2022/01/07 09:21:17;;;;;;;26.70;20.55;;;5.50;93.60;;;;;;6231223;22;20027;-78
2022/01/07 09:23:43;;;;;;;26.98;20.83;;;5.50;93.60;;;;;;6256716;22;20085;-78
2022/01/07 09:26:13;;;;;;;24.10;19.48;;;5.50;93.60;;;;;;6231112;22;20094;-79
2022/01/07 09:28:39;;;;;;;26.50;19.70;;;5.60;93.60;;;;;;6283176;22;20028;-78
2022/01/07 09:31:04;;;;;;;24.27;19.17;;;5.60;93.60;;;;;;6231070;22;20012;-79
2022/01/07 09:33:30;;;;;;;27.60;20.30;;;5.60;93.60;;;;;;6231297;22;20500;-79
2022/01/07 09:35:56;;;;;;;27.73;20.90;;;5.70;93.60;;;;;;6231213;22;20020;-79
2022/01/07 09:38:21;;;;;;;31.40;21.48;;;5.70;93.50;;;;;;6231018;22;20019;-78
2022/01/07 09:40:51;;;;;;;28.38;20.13;;;5.70;93.50;;;;;;6255514;22;20019;-79
2022/01/07 09:43:17;;;;;;;27.60;20.52;;;5.70;93.50;;;;;;6228296;22;20022;-79
2022/01/07 09:45:43;;;;;;;28.42;19.98;;;5.70;93.50;;;;;;6204975;22;20094;-79
2022/01/07 09:48:08;;;;;;;29.13;20.88;;;5.70;93.60;;;;;;6231107;22;20366;-79
2022/01/07 09:50:35;;;;;;;26.88;21.17;;;5.70;93.60;;;;;;6257172;22;20015;-80
2022/01/07 09:53:07;;;;;;;26.33;20.20;;;5.70;93.60;;;;;;6231778;22;20031;-79
2022/01/07 09:55:33;;;;;;;26.52;20.25;;;5.70;93.70;;;;;;6206422;22;20438;-79
2022/01/07 09:58:00;;;;;;;25.02;19.50;;;5.80;94.00;;;;;;6283732;22;20020;-78
2022/01/07 10:00:30;;;;;;;26.85;20.17;;;5.80;93.60;;;;;;6206064;22;20008;-78
2022/01/07 10:03:04;;;;;;;24.90;19.25;;;5.80;93.70;;;;;;6232592;22;20031;-78
2022/01/07 10:05:30;;;;;;;25.63;19.25;;;5.90;93.70;;;;;;6206582;22;20438;-78
2022/01/07 10:07:56;;;;;;;28.30;18.83;;;5.90;93.60;;;;;;6231286;22;20031;-78
2022/01/07 10:10:22;;;;;;;24.85;18.95;;;5.90;93.60;;;;;;6231079;22;20016;-79
2022/01/07 10:13:04;;;;;;;24.38;19.23;;;5.90;93.60;;;;;;6230723;22;20034;-78
2022/01/07 10:15:31;;;;;;;27.60;19.80;;;5.90;93.60;;;;;;6206986;22;20016;-78
2022/01/07 10:18:08;;;;;;;25.13;18.02;;;5.90;93.60;;;;;;6206037;22;20024;-79
2022/01/07 10:20:40;;;;;;;23.10;17.23;;;5.90;93.60;;;;;;6232365;22;20027;-78
2022/01/07 10:23:18;;;;;;;20.58;15.10;;;6.00;93.60;;;;;;6183746;22;20054;-78
2022/01/07 10:25:45;;;;;;;19.70;14.35;;;6.00;93.60;;;;;;6256368;22;20437;-77
2022/01/07 10:28:12;;;;;;;19.17;13.63;;;5.90;93.60;;;;;;6231274;22;20015;-81
2022/01/07 10:30:49;;;;;;;17.92;12.88;;;5.90;93.60;;;;;;6256684;22;20054;-78
2022/01/07 10:33:24;;;;;;;16.88;13.00;;;5.90;93.60;;;;;;6206740;22;20011;-77
2022/01/07 10:35:56;;;;;;;16.27;12.95;;;6.00;93.60;;;;;;6232362;22;20019;-78
2022/01/07 10:38:29;;;;;;;18.00;11.98;;;6.00;93.60;;;;;;6208263;22;20015;-78
2022/01/07 10:40:56;;;;;;;;;;;6.00;93.50;;;;;;6259254;22;20016;-78
2022/01/07 10:43:24;;;;;;;13.43;9.90;;;6.10;93.60;;;;;;6263138;22;19915;-79
2022/01/07 10:45:55;;;;;;;15.23;10.45;;;6.10;93.40;;;;;;6215757;22;20015;-78
2022/01/07 10:48:22;;;;;;;14.02;10.32;;;6.10;93.40;;;;;;6295848;22;20000;-78
2022/01/07 10:50:49;;;;;;;13.30;10.07;;;6.10;93.40;;;;;;6293682;22;20015;-78
2022/01/07 10:53:28;;;;;;;16.88;9.77;;;6.10;93.40;;;;;;6208951;22;20020;-80
2022/01/07 10:56:03;;;;;;;12.48;9.60;;;6.10;93.40;;;;;;6232621;22;20058;-77
2022/01/07 10:58:29;;;;;;;13.52;10.05;;;6.10;93.40;;;;;;6235038;22;20011;-78
2022/01/07 11:00:54;;;;;;;14.77;10.80;;;6.20;93.40;;;;;;6262866;22;20023;-78
2022/01/07 11:03:20;;;;;;;13.82;10.57;;;6.20;93.30;;;;;;6293968;22;20023;-79
2022/01/07 11:05:46;;;;;;;14.30;10.70;;;6.20;93.30;;;;;;6243335;22;20054;-79
2022/01/07 11:08:14;;;;;;;17.08;12.65;;;6.30;93.30;;;;;;6210166;22;20019;-78
2022/01/07 11:10:40;;;;;;;18.55;13.10;;;6.30;93.30;;;;;;6230685;22;20020;-78
2022/01/07 11:13:06;;;;;;;17.10;12.93;;;6.30;93.30;;;;;;6206291;22;20027;-78
2022/01/07 11:15:31;;;;;;;19.65;14.52;;;6.30;93.30;;;;;;6181058;22;20019;-78
2022/01/07 11:17:57;;;;;;;18.48;13.45;;;6.40;93.30;;;;;;6204933;22;20070;-80
2022/01/07 11:20:24;;;;;;;20.20;14.85;;;6.40;93.30;;;;;;6252979;22;20051;-74
2022/01/07 11:22:51;;;;;;;24.27;15.35;;;6.40;93.30;;;;;;6278969;22;20016;-82
2022/01/07 11:25:16;;;;;;;19.92;14.52;;;6.40;93.30;;;;;;6225926;22;20019;-81
2022/01/07 11:27:45;;;;;;;22.10;14.88;;;6.30;93.30;;;;;;6224895;22;20051;-76
2022/01/07 11:30:12;;;;;;;19.40;11.85;;;6.30;93.30;;;;;;6255131;22;20020;-79
2022/01/07 11:32:45;;;;;;;12.73;9.43;;;6.30;93.30;;;;;;6207710;22;20011;-78
2022/01/07 11:35:17;;;;;;;8.85;5.25;;;6.30;93.20;;;;;;6210454;22;20020;-79
2022/01/07 11:37:44;;;;;;;11.00;4.43;;;6.20;93.00;;;;;;6236157;22;20098;-78
2022/01/07 11:40:10;;;;;;;9.48;3.38;;;6.20;92.90;;;;;;6186745;22;20058;-76
2022/01/07 11:42:43;;;;;;;5.78;2.92;;;6.20;92.90;;;;;;6204039;22;20024;-78
2022/01/07 11:45:30;;;;;;;6.15;3.30;;;6.10;92.80;;;;;;6256137;22;20015;-77
2022/01/07 11:47:56;;;;;;;6.70;3.05;;;6.10;92.70;;;;;;6230845;22;20019;-75
2022/01/07 11:50:25;;;;;;;6.20;2.58;;;6.10;92.70;;;;;;6229734;22;20012;-82
2022/01/07 11:52:58;;;;;;;7.15;2.33;;;6.10;92.60;;;;;;6229922;22;20381;-75
2022/01/07 11:55:36;;;;;;;6.45;2.58;;;6.10;92.80;;;;;;6225991;22;20020;-77
2022/01/07 11:58:10;;;;;;;5.78;1.60;;;6.60;93.50;;;;;;6227956;22;20479;-76
2022/01/07 12:00:58;;;;;;;8.07;1.50;;;6.70;92.50;;;;;;6279720;22;20019;-79
2022/01/07 12:03:40;;;;;;;4.72;1.05;;;6.60;91.90;;;;;;6203251;22;20011;-80
2022/01/07 12:06:23;;;;;;;4.75;1.40;;;6.60;91.80;;;;;;6228692;22;20070;-78
2022/01/07 12:09:25;;;;;;;5.32;1.60;;;6.60;91.80;;;;;;6255322;22;20023;-81
2022/01/07 12:11:53;;;;;;;8.70;1.88;;;6.50;91.60;;;;;;6160102;22;20015;-78
2022/01/07 12:14:21;;;;;;;4.22;1.13;;;6.40;91.70;;;;;;6203094;22;20098;-75
2022/01/07 12:16:54;;;;;;;4.38;1.33;;;6.40;91.60;;;;;;6253371;22;20038;-76
2022/01/07 12:19:23;;;;;;;5.22;1.02;;;6.30;91.50;;;;;;6206795;22;20020;-78
2022/01/07 12:21:51;;;;;;;6.75;1.30;;;6.40;91.50;;;;;;6283458;22;20022;-78
2022/01/07 12:24:21;;;;;;;5.10;1.40;;;6.80;92.00;;;;;;6256595;22;20020;-80
2022/01/07 12:26:46;;;;;;;3.58;1.40;;;6.70;91.30;;;;;;6207261;22;20011;-78
2022/01/07 12:29:16;;;;;;;6.50;1.60;;;6.70;91.10;;;;;;6282990;22;20059;-77
2022/01/07 12:31:51;;;;;;;4.45;1.38;;;6.60;91.00;;;;;;6231291;22;20370;-80
2022/01/07 12:34:31;;;;;;;5.88;1.35;;;6.60;91.00;;;;;;6256445;22;20018;-78
2022/01/07 12:37:03;;;;;;;3.47;1.40;;;6.70;91.00;;;;;;6231530;22;20027;-77
2022/01/07 12:39:40;;;;;;;5.20;1.55;;;6.70;91.10;;;;;;6241591;22;20015;-83
2022/01/07 12:42:06;;;;;;;4.93;1.70;;;6.80;91.00;;;;;;6208936;22;20028;-81
2022/01/07 12:44:35;;;;;;;3.08;1.50;;;6.90;91.00;;;;;;6234313;22;20020;-83
2022/01/07 12:47:01;;;;;;;7.28;1.77;;;7.00;91.00;;;;;;6210036;22;20391;-78
2022/01/07 12:49:53;;;;;;;5.50;1.58;;;7.20;90.80;;;;;;6204778;22;20016;-80
2022/01/07 12:52:26;;;;;;;5.00;2.13;;;7.40;90.60;;;;;;6209453;22;20019;-83
2022/01/07 12:55:02;;;;;;;;;;;7.50;90.40;;;;;;6207422;22;20088;-81